createdAt,value
2023-03-18T00:00:17.638Z,28.30
2023-03-18T00:03:05.581Z,23.80
2023-03-18T00:05:33.639Z,24.50
2023-03-18T00:08:02.004Z,26.80
2023-03-18T00:10:29.872Z,21.60
2023-03-18T00:12:57.637Z,25.10
2023-03-18T00:15:25.453Z,25.80
2023-03-18T00:17:53.259Z,26.70
2023-03-18T00:20:20.834Z,24.40
2023-03-18T00:22:48.388Z,28.00
2023-03-18T00:25:15.945Z,33.40
2023-03-18T00:27:43.478Z,29.90
2023-03-18T00:30:11.806Z,29.60
2023-03-18T00:32:39.553Z,33.50
2023-03-18T00:35:07.384Z,30.60
2023-03-18T00:37:34.952Z,32.80
2023-03-18T00:40:09.851Z,24.50
2023-03-18T00:42:39.759Z,29.80
2023-03-18T00:45:09.882Z,26.00
2023-03-18T00:47:37.676Z,24.90
2023-03-18T00:50:07.194Z,26.00
2023-03-18T00:52:35.594Z,25.20
2023-03-18T00:55:04.571Z,29.00
2023-03-18T00:57:32.265Z,22.10
2023-03-18T00:59:59.964Z,23.40
2023-03-18T01:02:28.042Z,24.40
2023-03-18T01:04:56.388Z,26.90
2023-03-18T01:07:24.668Z,28.90
2023-03-18T01:09:52.307Z,26.40
2023-03-18T01:12:19.898Z,23.00
2023-03-18T01:14:47.482Z,29.70
2023-03-18T01:17:15.113Z,30.10
2023-03-18T01:19:42.702Z,28.10
2023-03-18T01:22:10.255Z,22.30
2023-03-18T01:24:37.834Z,16.40
2023-03-18T01:27:05.626Z,21.60
2023-03-18T01:29:33.777Z,21.10
2023-03-18T01:32:01.744Z,25.50
2023-03-18T01:34:29.357Z,23.50
2023-03-18T01:36:57.089Z,25.40
2023-03-18T01:39:25.061Z,21.90
2023-03-18T01:41:52.818Z,27.70
2023-03-18T01:44:23.052Z,28.00
2023-03-18T01:46:52.775Z,23.80
2023-03-18T01:49:37.293Z,27.40
2023-03-18T01:52:19.365Z,24.90
2023-03-18T01:55:01.258Z,21.30
2023-03-18T01:57:30.333Z,22.00
2023-03-18T01:59:58.841Z,25.30
2023-03-18T02:02:27.009Z,29.30
2023-03-18T02:04:57.931Z,25.70
2023-03-18T02:07:29.223Z,24.30
2023-03-18T02:10:03.864Z,26.40
2023-03-18T02:12:37.328Z,25.50
2023-03-18T02:15:12.479Z,26.20
2023-03-18T02:17:44.115Z,28.80
2023-03-18T02:21:08.359Z,27.10
2023-03-18T02:23:47.716Z,35.10
2023-03-18T02:26:47.454Z,26.60
2023-03-18T02:29:17.690Z,26.40
2023-03-18T02:31:46.992Z,24.50
2023-03-18T02:34:16.368Z,26.20
2023-03-18T02:36:44.135Z,31.80
2023-03-18T02:39:15.672Z,20.40
2023-03-18T02:41:43.795Z,26.80
2023-03-18T02:44:12.450Z,21.20
2023-03-18T02:47:03.964Z,28.30
2023-03-18T02:49:32.151Z,24.00
2023-03-18T02:51:59.732Z,25.60
2023-03-18T02:54:29.772Z,22.00
2023-03-18T02:56:58.493Z,21.90
2023-03-18T02:59:26.152Z,23.50
2023-03-18T03:01:55.050Z,27.10
2023-03-18T03:04:25.313Z,28.90
2023-03-18T03:06:54.795Z,26.00
2023-03-18T03:09:22.627Z,24.00
2023-03-18T03:11:50.518Z,26.30
2023-03-18T03:14:18.086Z,20.60
2023-03-18T03:16:45.680Z,24.70
2023-03-18T03:19:13.403Z,18.80
2023-03-18T03:21:40.994Z,21.30
2023-03-18T03:24:09.081Z,22.90
2023-03-18T03:26:36.781Z,19.90
2023-03-18T03:29:05.128Z,24.90
2023-03-18T03:31:33.677Z,17.10
2023-03-18T03:34:01.382Z,19.50
2023-03-18T03:36:28.944Z,21.70
2023-03-18T03:38:56.591Z,20.10
2023-03-18T03:41:24.198Z,20.50
2023-03-18T03:43:51.886Z,23.00
2023-03-18T03:46:19.620Z,22.10
2023-03-18T03:48:47.284Z,19.00
2023-03-18T03:51:14.998Z,21.90
2023-03-18T03:53:42.594Z,19.40
2023-03-18T03:56:10.139Z,20.90
2023-03-18T03:58:37.785Z,17.50
2023-03-18T04:01:05.395Z,17.40
2023-03-18T04:03:33.005Z,25.90
2023-03-18T04:06:00.563Z,26.70
2023-03-18T04:08:28.139Z,27.90
2023-03-18T04:10:55.708Z,24.50
2023-03-18T04:13:23.377Z,22.30
2023-03-18T04:15:51.099Z,20.90
2023-03-18T04:18:18.902Z,24.80
2023-03-18T04:20:46.536Z,28.70
2023-03-18T04:23:14.186Z,19.20
2023-03-18T04:25:41.737Z,20.10
2023-03-18T04:28:09.379Z,18.70
2023-03-18T04:30:36.985Z,18.90
2023-03-18T04:33:04.603Z,17.80
2023-03-18T04:35:32.322Z,26.40
2023-03-18T04:37:59.982Z,23.90
2023-03-18T04:40:27.877Z,22.90
2023-03-18T04:42:55.451Z,48.70
2023-03-18T04:45:23.027Z,64.80
2023-03-18T04:47:50.779Z,71.10
2023-03-18T04:50:18.460Z,81.30
2023-03-18T04:52:47.632Z,66.30
2023-03-18T04:55:15.675Z,75.70
2023-03-18T04:57:43.671Z,52.00
2023-03-18T05:00:14.164Z,41.00
2023-03-18T05:02:41.748Z,37.00
2023-03-18T05:05:10.379Z,23.80
2023-03-18T05:07:38.068Z,20.70
2023-03-18T05:10:06.860Z,24.50
2023-03-18T05:12:35.574Z,20.50
2023-03-18T05:15:05.364Z,19.40
2023-03-18T05:17:33.014Z,24.00
2023-03-18T05:20:00.728Z,18.30
2023-03-18T05:22:28.389Z,19.80
2023-03-18T05:24:56.063Z,23.60
2023-03-18T05:27:23.715Z,22.80
2023-03-18T05:29:51.445Z,22.90
2023-03-18T05:32:19.015Z,22.50
2023-03-18T05:34:46.578Z,24.60
2023-03-18T05:37:15.049Z,18.50
2023-03-18T05:39:44.826Z,18.70
2023-03-18T05:42:13.241Z,16.90
2023-03-18T05:44:41.169Z,18.90
2023-03-18T05:47:09.449Z,15.80
2023-03-18T05:49:37.073Z,18.60
2023-03-18T05:52:04.776Z,18.60
2023-03-18T05:54:32.622Z,19.60
2023-03-18T05:57:00.199Z,17.10
2023-03-18T05:59:27.795Z,17.50
2023-03-18T06:01:55.540Z,23.70
2023-03-18T06:04:23.195Z,22.40
2023-03-18T06:06:50.794Z,21.40
2023-03-18T06:09:18.508Z,17.90
2023-03-18T06:11:46.226Z,21.80
2023-03-18T06:14:14.060Z,20.40
2023-03-18T06:16:41.997Z,16.40
2023-03-18T06:19:10.526Z,19.30
2023-03-18T06:21:41.222Z,16.00
2023-03-18T06:24:09.404Z,21.70
2023-03-18T06:26:37.027Z,16.80
2023-03-18T06:29:04.625Z,19.90
2023-03-18T06:31:32.536Z,20.60
2023-03-18T06:34:01.394Z,21.00
2023-03-18T06:36:29.178Z,18.20
2023-03-18T06:38:56.770Z,20.20
2023-03-18T06:41:24.340Z,15.90
2023-03-18T06:43:51.952Z,17.70
2023-03-18T06:46:19.565Z,18.30
2023-03-18T06:48:47.220Z,16.60
2023-03-18T06:51:14.802Z,20.30
2023-03-18T06:53:42.444Z,24.10
2023-03-18T06:56:09.999Z,26.60
2023-03-18T06:58:37.538Z,23.40
2023-03-18T07:01:05.265Z,21.50
2023-03-18T07:03:32.894Z,26.00
2023-03-18T07:06:00.684Z,20.00
2023-03-18T07:08:28.419Z,22.40
2023-03-18T07:10:57.666Z,23.80
2023-03-18T07:13:25.528Z,27.40
2023-03-18T07:15:53.179Z,26.00
2023-03-18T07:18:20.739Z,33.40
2023-03-18T07:20:48.456Z,25.40
2023-03-18T07:23:16.041Z,25.00
2023-03-18T07:25:43.662Z,27.80
2023-03-18T07:28:11.563Z,28.00
2023-03-18T07:30:39.206Z,14.60
2023-03-18T07:33:06.770Z,21.30
2023-03-18T07:35:34.806Z,20.30
2023-03-18T07:38:02.768Z,19.80
2023-03-18T07:40:30.371Z,19.10
2023-03-18T07:42:57.951Z,15.80
2023-03-18T07:45:25.588Z,21.00
2023-03-18T07:47:53.240Z,21.30
2023-03-18T07:50:20.843Z,17.30
2023-03-18T07:52:48.563Z,17.10
2023-03-18T07:55:16.207Z,21.60
2023-03-18T07:57:43.826Z,22.10
2023-03-18T08:00:12.461Z,20.50
2023-03-18T08:02:40.625Z,19.90
2023-03-18T08:05:08.809Z,21.60
2023-03-18T08:07:36.701Z,15.50
2023-03-18T08:10:04.842Z,16.10
2023-03-18T08:12:49.097Z,16.60
2023-03-18T08:15:19.493Z,13.60
2023-03-18T08:17:47.087Z,15.10
2023-03-18T08:20:14.846Z,19.60
2023-03-18T08:22:42.442Z,15.10
2023-03-18T08:25:10.106Z,18.80
2023-03-18T08:27:37.926Z,15.60
2023-03-18T08:30:06.121Z,12.10
2023-03-18T08:32:33.797Z,10.00
2023-03-18T08:35:01.909Z,10.30
2023-03-18T08:37:29.485Z,16.00
2023-03-18T08:39:57.065Z,12.90
2023-03-18T08:42:24.663Z,13.60
2023-03-18T08:44:52.274Z,11.40
2023-03-18T08:47:19.830Z,10.00
2023-03-18T08:49:48.008Z,12.70
2023-03-18T08:52:16.772Z,14.00
2023-03-18T08:54:44.331Z,13.70
2023-03-18T08:57:12.048Z,13.10
2023-03-18T08:59:39.652Z,13.10
2023-03-18T09:02:07.851Z,12.60
2023-03-18T09:04:35.447Z,9.90
2023-03-18T09:07:03.064Z,12.60
2023-03-18T09:09:41.045Z,12.80
2023-03-18T09:12:10.803Z,13.10
2023-03-18T09:14:38.369Z,15.00
2023-03-18T09:17:06.540Z,11.00
2023-03-18T09:19:34.718Z,13.50
2023-03-18T09:22:02.366Z,9.70
2023-03-18T09:24:30.007Z,16.90
2023-03-18T09:26:57.586Z,16.20
2023-03-18T09:29:25.571Z,15.20
2023-03-18T09:31:53.194Z,16.70
2023-03-18T09:34:20.928Z,15.80
2023-03-18T09:36:48.515Z,14.00
2023-03-18T09:39:16.149Z,13.40
2023-03-18T09:41:57.777Z,13.60
2023-03-18T09:44:30.835Z,13.80
2023-03-18T09:47:20.221Z,14.60
2023-03-18T09:50:05.276Z,14.70
2023-03-18T09:52:39.067Z,14.80
2023-03-18T09:55:25.365Z,13.00
2023-03-18T09:57:57.964Z,12.40
2023-03-18T10:00:30.886Z,10.60
2023-03-18T10:03:22.843Z,11.30
2023-03-18T10:05:54.221Z,15.20
2023-03-18T10:08:39.169Z,13.20
2023-03-18T10:11:17.552Z,12.70
2023-03-18T10:13:52.381Z,12.70
2023-03-18T10:16:29.026Z,11.90
2023-03-18T10:18:56.820Z,10.60
2023-03-18T10:21:36.572Z,12.90
2023-03-18T10:24:07.196Z,9.90
2023-03-18T10:26:40.424Z,10.10
2023-03-18T10:29:39.208Z,10.90
2023-03-18T10:32:49.582Z,11.30
2023-03-18T10:35:29.722Z,9.20
2023-03-18T10:38:02.812Z,10.80
2023-03-18T10:40:37.941Z,10.30
2023-03-18T10:43:16.265Z,10.10
2023-03-18T10:45:46.301Z,10.50
2023-03-18T10:48:36.119Z,10.00
2023-03-18T10:51:30.541Z,9.40
2023-03-18T10:54:04.137Z,8.80
2023-03-18T10:56:31.801Z,11.40
2023-03-18T10:58:59.556Z,13.10
2023-03-18T11:01:28.981Z,9.10
2023-03-18T11:04:00.680Z,8.90
2023-03-18T11:06:47.043Z,9.50
2023-03-18T11:09:20.720Z,8.50
2023-03-18T11:11:50.586Z,8.40
2023-03-18T11:14:22.821Z,7.20
2023-03-18T11:17:05.832Z,7.50
2023-03-18T11:19:39.222Z,9.90
2023-03-18T11:22:09.868Z,8.20
2023-03-18T11:24:42.116Z,8.10
2023-03-18T11:27:15.890Z,7.80
2023-03-18T11:30:18.634Z,8.40
2023-03-18T11:32:54.843Z,8.40
2023-03-18T11:35:26.183Z,9.10
2023-03-18T11:37:53.757Z,8.70
2023-03-18T11:40:27.207Z,7.60
2023-03-18T11:43:13.901Z,6.70
2023-03-18T11:45:47.244Z,7.60
2023-03-18T11:48:28.536Z,7.70
2023-03-18T11:51:08.243Z,7.40
2023-03-18T11:53:49.627Z,9.30
2023-03-18T11:59:15.610Z,6.90
2023-03-18T12:02:04.289Z,8.50
2023-03-18T12:04:59.485Z,7.40
2023-03-18T12:07:59.895Z,7.90
2023-03-18T12:10:40.996Z,6.90
2023-03-18T12:13:22.379Z,5.90
2023-03-18T12:16:33.241Z,8.50
2023-03-18T12:19:25.837Z,8.00
2023-03-18T12:22:15.163Z,11.60
2023-03-18T12:25:07.673Z,6.30
2023-03-18T12:27:48.231Z,8.30
2023-03-18T12:30:55.143Z,6.70
2023-03-18T12:33:37.166Z,7.50
2023-03-18T12:36:27.640Z,7.60
2023-03-18T12:39:31.108Z,7.80
2023-03-18T12:42:10.694Z,7.70
2023-03-18T12:45:01.352Z,7.30
2023-03-18T12:47:39.403Z,8.90
2023-03-18T12:50:36.207Z,6.40
2023-03-18T12:53:19.237Z,6.20
2023-03-18T12:55:51.941Z,8.90
2023-03-18T12:58:24.977Z,9.50
2023-03-18T13:01:14.271Z,9.30
2023-03-18T13:04:03.461Z,6.80
2023-03-18T13:06:39.508Z,6.80
2023-03-18T13:09:14.544Z,9.10
2023-03-18T13:11:50.920Z,9.90
2023-03-18T13:14:33.572Z,9.40
2023-03-18T13:17:02.548Z,7.60
2023-03-18T13:19:31.531Z,5.90
2023-03-18T13:22:26.898Z,6.50
2023-03-18T13:25:14.437Z,5.60
2023-03-18T13:27:52.603Z,7.20
2023-03-18T13:30:48.314Z,7.40
2023-03-18T13:33:35.463Z,7.10
2023-03-18T13:36:27.526Z,7.70
2023-03-18T13:39:13.800Z,7.70
2023-03-18T13:42:10.867Z,8.20
2023-03-18T13:44:45.345Z,6.30
2023-03-18T13:47:19.835Z,7.80
2023-03-18T13:52:43.173Z,7.30
2023-03-18T13:55:32.525Z,6.50
2023-03-18T13:58:12.494Z,8.40
2023-03-18T14:00:42.048Z,8.40
2023-03-18T14:03:18.800Z,6.90
2023-03-18T14:06:05.824Z,8.80
2023-03-18T14:11:23.329Z,7.90
2023-03-18T14:14:02.675Z,7.80
2023-03-18T14:16:51.568Z,9.30
2023-03-18T14:19:23.262Z,8.30
2023-03-18T14:21:53.535Z,9.40
2023-03-18T14:24:25.840Z,8.40
2023-03-18T14:26:59.533Z,8.60
2023-03-18T14:29:47.067Z,9.30
2023-03-18T14:32:32.854Z,9.30
2023-03-18T14:35:24.561Z,7.60
2023-03-18T14:38:25.664Z,8.70
2023-03-18T14:40:55.931Z,7.60
2023-03-18T14:43:34.347Z,8.70
2023-03-18T14:46:07.309Z,8.80
2023-03-18T14:48:35.522Z,7.80
2023-03-18T14:51:17.648Z,6.60
2023-03-18T14:53:53.421Z,6.90
2023-03-18T14:56:23.856Z,8.30
2023-03-18T14:58:53.089Z,8.00
2023-03-18T15:01:45.127Z,9.40
2023-03-18T15:04:18.696Z,9.10
2023-03-18T15:06:46.548Z,8.20
2023-03-18T15:09:20.632Z,7.40
2023-03-18T15:11:48.162Z,7.50
2023-03-18T15:14:33.902Z,9.70
2023-03-18T15:17:05.222Z,9.20
2023-03-18T15:19:32.835Z,9.00
2023-03-18T15:22:06.572Z,9.00
2023-03-18T15:24:34.560Z,8.50
2023-03-18T15:27:12.670Z,10.20
2023-03-18T15:29:55.262Z,12.00
2023-03-18T15:32:31.306Z,10.50
2023-03-18T15:35:11.376Z,9.30
2023-03-18T15:37:40.461Z,9.20
2023-03-18T15:40:27.715Z,12.60
2023-03-18T15:43:03.160Z,9.80
2023-03-18T15:48:12.959Z,12.30
2023-03-18T15:53:21.501Z,12.10
2023-03-18T15:55:52.422Z,14.80
2023-03-18T15:58:27.374Z,17.40
2023-03-18T16:00:56.886Z,13.10
2023-03-18T16:03:29.356Z,13.30
2023-03-18T16:05:57.427Z,14.20
2023-03-18T16:08:25.323Z,13.10
2023-03-18T16:11:01.152Z,16.50
2023-03-18T16:13:32.125Z,13.50
2023-03-18T16:16:00.220Z,11.50
2023-03-18T16:18:28.142Z,12.80
2023-03-18T16:20:55.704Z,16.60
2023-03-18T16:23:23.305Z,19.40
2023-03-18T16:25:53.200Z,20.60
2023-03-18T16:28:26.390Z,21.50
2023-03-18T16:30:54.273Z,22.50
2023-03-18T16:33:23.103Z,17.00
2023-03-18T16:35:58.965Z,17.30
2023-03-18T16:38:27.008Z,16.40
2023-03-18T16:40:55.297Z,14.50
2023-03-18T16:43:28.189Z,14.30
2023-03-18T16:46:03.007Z,14.10
2023-03-18T16:48:30.664Z,15.30
2023-03-18T16:51:01.111Z,14.50
2023-03-18T16:53:31.350Z,17.10
2023-03-18T16:56:08.689Z,28.00
2023-03-18T16:58:37.017Z,22.50
2023-03-18T17:01:05.731Z,26.80
2023-03-18T17:03:36.896Z,26.50
2023-03-18T17:06:04.798Z,28.30
2023-03-18T17:08:32.348Z,20.20
2023-03-18T17:11:03.043Z,25.80
2023-03-18T17:13:34.619Z,35.40
2023-03-18T17:16:02.210Z,52.50
2023-03-18T17:18:29.772Z,30.80
2023-03-18T17:20:57.356Z,32.80
2023-03-18T17:23:27.920Z,33.90
2023-03-18T17:25:58.434Z,29.90
2023-03-18T17:28:42.158Z,29.90
2023-03-18T17:31:11.993Z,31.40
2023-03-18T17:33:39.567Z,28.90
2023-03-18T17:36:08.151Z,35.60
2023-03-18T17:38:36.023Z,32.60
2023-03-18T17:41:13.310Z,66.20
2023-03-18T17:43:40.873Z,42.00
2023-03-18T17:46:08.553Z,26.90
2023-03-18T17:48:37.845Z,34.20
2023-03-18T17:51:16.060Z,28.00
2023-03-18T17:53:49.209Z,34.50
2023-03-18T17:56:19.189Z,33.80
2023-03-18T18:01:18.899Z,34.00
2023-03-18T18:03:46.868Z,29.10
2023-03-18T18:06:20.663Z,24.40
2023-03-18T18:08:49.319Z,20.30
2023-03-18T18:11:22.837Z,25.10
2023-03-18T18:13:53.489Z,23.50
2023-03-18T18:16:21.354Z,15.10
2023-03-18T18:18:50.066Z,26.30
2023-03-18T18:21:21.558Z,28.20
2023-03-18T18:23:49.715Z,26.70
2023-03-18T18:26:19.074Z,27.40
2023-03-18T18:28:51.718Z,24.40
2023-03-18T18:31:21.839Z,35.70
2023-03-18T18:33:50.226Z,31.30
2023-03-18T18:36:18.280Z,35.10
2023-03-18T18:38:45.984Z,34.60
2023-03-18T18:41:13.584Z,28.40
2023-03-18T18:43:41.232Z,30.60
2023-03-18T18:46:13.367Z,37.10
2023-03-18T18:48:41.369Z,38.10
2023-03-18T18:51:14.837Z,31.80
2023-03-18T18:53:43.466Z,24.40
2023-03-18T18:56:33.568Z,29.60
2023-03-18T18:59:02.385Z,30.20
2023-03-18T19:01:29.971Z,23.60
2023-03-18T19:03:58.170Z,26.00
2023-03-18T19:06:29.195Z,27.30
2023-03-18T19:08:58.956Z,27.10
2023-03-18T19:11:28.038Z,30.40
2023-03-18T19:14:16.767Z,39.30
2023-03-18T19:19:29.734Z,35.60
2023-03-18T19:21:59.101Z,55.00
2023-03-18T19:24:35.237Z,48.00
2023-03-18T19:27:15.449Z,49.50
2023-03-18T19:29:44.490Z,41.40
2023-03-18T19:32:21.231Z,43.20
2023-03-18T19:34:50.697Z,40.40
2023-03-18T19:37:24.724Z,57.90
2023-03-18T19:39:52.378Z,84.10
2023-03-18T19:42:19.977Z,91.20
2023-03-18T19:44:48.338Z,78.50
2023-03-18T19:47:28.221Z,78.10
2023-03-18T19:49:55.789Z,86.10
2023-03-18T19:52:28.556Z,104.90
2023-03-18T19:54:56.296Z,98.10
2023-03-18T19:57:27.051Z,83.80
2023-03-18T19:59:56.696Z,87.30
2023-03-18T20:02:24.296Z,90.10
2023-03-18T20:04:54.390Z,86.20
2023-03-18T20:07:24.959Z,80.00
2023-03-18T20:09:53.926Z,77.70
2023-03-18T20:12:30.700Z,63.00
2023-03-18T20:14:58.558Z,74.80
2023-03-18T20:17:37.213Z,70.00
2023-03-18T20:20:06.864Z,70.70
2023-03-18T20:22:37.667Z,63.30
2023-03-18T20:25:08.662Z,51.90
2023-03-18T20:27:36.346Z,50.10
2023-03-18T20:30:30.369Z,49.40
2023-03-18T20:32:58.216Z,43.10
2023-03-18T20:35:29.045Z,42.20
2023-03-18T20:37:58.709Z,48.40
2023-03-18T20:40:28.565Z,43.40
2023-03-18T20:42:56.877Z,44.70
2023-03-18T20:45:25.004Z,47.30
2023-03-18T20:47:52.691Z,43.50
2023-03-18T20:50:24.325Z,40.90
2023-03-18T20:52:52.021Z,35.10
2023-03-18T20:55:22.613Z,32.20
2023-03-18T20:57:50.353Z,27.00
2023-03-18T21:00:23.148Z,30.40
2023-03-18T21:02:56.203Z,29.60
2023-03-18T21:05:25.642Z,31.30
2023-03-18T21:07:53.714Z,30.50
2023-03-18T21:10:24.387Z,31.30
2023-03-18T21:12:52.681Z,25.90
2023-03-18T21:15:23.113Z,28.70
2023-03-18T21:17:51.296Z,30.70
2023-03-18T21:20:29.389Z,29.00
2023-03-18T21:22:58.154Z,33.50
2023-03-18T21:25:28.189Z,28.60
2023-03-18T21:27:56.183Z,29.30
2023-03-18T21:30:24.571Z,40.60
2023-03-18T21:32:52.197Z,33.70
2023-03-18T21:35:26.492Z,37.00
2023-03-18T21:37:54.112Z,36.10
2023-03-18T21:40:23.891Z,37.20
2023-03-18T21:42:52.038Z,33.50
2023-03-18T21:45:21.935Z,27.50
2023-03-18T21:47:49.673Z,26.40
2023-03-18T21:50:22.939Z,26.40
2023-03-18T21:52:51.036Z,23.80
2023-03-18T21:55:19.686Z,22.30
2023-03-18T21:57:49.011Z,23.70
2023-03-18T22:00:18.575Z,23.90
2023-03-18T22:02:47.313Z,25.40
2023-03-18T22:05:20.826Z,24.60
2023-03-18T22:07:49.499Z,25.50
2023-03-18T22:10:20.067Z,20.40
2023-03-18T22:12:47.671Z,22.40
2023-03-18T22:15:24.172Z,29.30
2023-03-18T22:17:52.250Z,40.90
2023-03-18T22:20:19.894Z,40.70
2023-03-18T22:22:47.498Z,37.40
2023-03-18T22:25:29.013Z,32.40
2023-03-18T22:28:00.211Z,33.00
2023-03-18T22:30:30.546Z,35.50
2023-03-18T22:35:29.620Z,29.30
2023-03-18T22:40:28.110Z,25.30
2023-03-18T22:42:57.876Z,25.80
2023-03-18T22:45:31.467Z,25.90
2023-03-18T22:48:02.431Z,26.90
2023-03-18T22:50:32.340Z,26.30
2023-03-18T22:53:08.595Z,26.50
2023-03-18T22:55:39.100Z,24.20
2023-03-18T22:58:07.579Z,34.90
2023-03-18T23:00:36.667Z,24.80
2023-03-18T23:03:11.075Z,30.80
2023-03-18T23:05:38.723Z,25.90
2023-03-18T23:08:06.266Z,34.40
2023-03-18T23:10:33.929Z,34.20
2023-03-18T23:13:01.531Z,36.40
2023-03-18T23:15:29.102Z,26.90
2023-03-18T23:17:56.690Z,33.20
2023-03-18T23:20:24.225Z,31.40
2023-03-18T23:22:51.941Z,31.40
2023-03-18T23:25:19.527Z,31.60
2023-03-18T23:27:47.082Z,29.50
2023-03-18T23:30:14.755Z,25.00
2023-03-18T23:32:42.377Z,30.20
2023-03-18T23:35:10.414Z,31.40
2023-03-18T23:37:37.970Z,22.90
2023-03-18T23:40:06.385Z,27.70
2023-03-18T23:42:34.110Z,30.60
2023-03-18T23:45:01.761Z,31.00
2023-03-18T23:47:29.416Z,24.80
2023-03-18T23:49:57.019Z,26.90
2023-03-18T23:52:24.785Z,22.20
2023-03-18T23:54:52.354Z,32.50
2023-03-18T23:57:19.952Z,25.70
2023-03-18T23:59:47.510Z,24.30
